Time;durP1;ratioP1;P1;durP2;ratioP2;P2;SDS_P1;SDS_P2;PMS_P1;PMS_P2;Temp;Humidity;BMP_temperature;BMP_pressure;BME280_temperature;BME280_humidity;BME280_pressure;Samples;Min_cycle;Max_cycle;Signal;HPM_P1;HPM_P2
2021/03/31 00:00:48;;;;;;;;;;;;;;;14.05;41.04;101896.81;4962396;28;7364;-77
2021/03/31 00:03:15;;;;;;;;;;;;;;;14.02;41.11;101896.72;4941370;28;6784;-79
2021/03/31 00:05:41;;;;;;;;;;;;;;;13.98;40.55;101894.84;4958127;28;7191;-80
2021/03/31 00:08:07;;;;;;;;;;;;;;;13.94;41.08;101898.22;4960165;28;11110;-84
2021/03/31 00:10:51;;;;;;;;;;;;;;;13.90;41.25;101896.38;4951357;28;6791;-82
2021/03/31 00:13:18;;;;;;;;;;;;;;;13.85;41.44;101890.16;4920833;28;11210;-77
2021/03/31 00:15:43;;;;;;;;;;;;;;;13.80;40.85;101890.00;4942142;28;8778;-81
2021/03/31 00:18:09;;;;;;;;;;;;;;;13.75;41.41;101890.72;4942043;28;7569;-81
2021/03/31 00:20:36;;;;;;;;;;;;;;;13.72;41.36;101885.41;4943251;28;7770;-81
2021/03/31 00:23:04;;;;;;;;;;;;;;;13.67;41.11;101888.78;4939882;28;6796;-80
2021/03/31 00:25:29;;;;;;;;;;;;;;;13.62;42.04;101882.56;4942532;28;8561;-83
2021/03/31 00:27:55;;;;;;;;;;;;;;;13.59;41.65;101878.94;4943227;28;7061;-81
2021/03/31 00:30:21;;;;;;;;;;;;;;;13.54;41.23;101876.22;4945228;28;8929;-78
2021/03/31 00:32:47;;;;;;;;;;;;;;;13.50;41.26;101883.91;4957341;28;6979;-80
2021/03/31 00:35:12;;;;;;;;;;;;;;;13.46;41.87;101876.84;4956719;28;7103;-80
2021/03/31 00:37:38;;;;;;;;;;;;;;;13.43;41.58;101871.53;4962254;28;8526;-78
2021/03/31 00:40:15;;;;;;;;;;;;;;;13.39;41.34;101873.16;4942340;28;7053;-83
2021/03/31 00:42:42;;;;;;;;;;;;;;;13.33;41.68;101868.63;4937640;28;11213;-78
2021/03/31 00:45:08;;;;;;;;;;;;;;;13.29;42.19;101873.72;4956214;28;11176;-77
2021/03/31 00:47:33;;;;;;;;;;;;;;;13.24;41.73;101863.16;4923380;28;6899;-83
2021/03/31 00:49:59;;;;;;;;;;;;;;;13.23;42.29;101860.50;4963177;28;7171;-77
2021/03/31 00:52:25;;;;;;;;;;;;;;;13.18;42.25;101859.47;4960306;28;6804;-78
2021/03/31 00:54:50;;;;;;;;;;;;;;;13.13;42.02;101853.19;4921039;28;6979;-80
2021/03/31 00:57:16;;;;;;;;;;;;;;;13.09;42.13;101850.50;4919730;28;7123;-81
2021/03/31 00:59:41;;;;;;;;;;;;;;;13.05;42.13;101842.53;4927160;28;6992;-77
2021/03/31 01:02:07;;;;;;;;;;;;;;;13.02;42.34;101837.25;4940634;28;7120;-78
2021/03/31 01:04:32;;;;;;;;;;;;;;;12.97;42.46;101833.59;4943519;28;7244;-78
2021/03/31 01:06:58;;;;;;;;;;;;;;;12.94;42.50;101834.38;4923251;28;7436;-79
2021/03/31 01:09:23;;;;;;;;;;;;;;;12.90;42.25;101826.41;4930353;28;7179;-80
2021/03/31 01:12:02;;;;;;;;;;;;;;;12.84;42.26;101827.13;4917720;28;8921;-78
2021/03/31 01:14:46;;;;;;;;;;;;;;;12.82;42.58;101823.59;4922803;28;7931;-80
2021/03/31 01:17:17;;;;;;;;;;;;;;;12.76;42.58;101823.38;4959780;28;11540;-77
2021/03/31 01:19:57;;;;;;;;;;;;;;;12.73;42.50;101828.50;4958084;28;10999;-80
2021/03/31 01:22:39;;;;;;;;;;;;;;;12.70;42.77;101817.97;4940368;28;11162;-79
2021/03/31 01:25:28;;;;;;;;;;;;;;;12.64;42.64;101813.47;4950423;28;7187;-79
2021/03/31 01:28:22;;;;;;;;;;;;;;;12.60;42.83;101815.91;4935638;28;11640;-77
2021/03/31 01:31:09;;;;;;;;;;;;;;;12.55;42.38;101804.47;4917752;29;12425;-76
2021/03/31 01:34:06;;;;;;;;;;;;;;;12.51;42.93;101802.59;4952584;28;7319;-79
2021/03/31 01:36:32;;;;;;;;;;;;;;;12.47;43.00;101801.63;4935272;28;11408;-75
2021/03/31 01:39:04;;;;;;;;;;;;;;;12.43;42.79;101800.63;4918799;28;7278;-81
2021/03/31 01:41:30;;;;;;;;;;;;;;;12.40;42.61;101795.31;4917738;29;7412;-78
2021/03/31 01:43:56;;;;;;;;;;;;;;;12.37;43.13;101791.72;4933546;28;6800;-79
2021/03/31 01:46:23;;;;;;;;;;;;;;;12.35;42.73;101798.59;4919598;28;8698;-77
2021/03/31 01:48:48;;;;;;;;;;;;;;;12.31;42.66;101792.41;4933961;28;6928;-76
2021/03/31 01:51:14;;;;;;;;;;;;;;;12.28;42.82;101786.22;4951348;28;7227;-80
2021/03/31 01:53:39;;;;;;;;;;;;;;;12.24;43.19;101785.25;4935968;28;6784;-78
2021/03/31 01:56:05;;;;;;;;;;;;;;;12.22;43.22;101781.72;4938833;28;7290;-76
2021/03/31 01:58:31;;;;;;;;;;;;;;;12.16;43.01;101781.47;4917758;28;8454;-77
2021/03/31 02:00:56;;;;;;;;;;;;;;;12.13;43.27;101786.59;4928841;29;7191;-78
2021/03/31 02:03:22;;;;;;;;;;;;;;;12.09;43.23;101775.19;4935131;29;6791;-78
2021/03/31 02:05:47;;;;;;;;;;;;;;;12.08;43.31;101782.97;4943076;28;6963;-80
2021/03/31 02:08:13;;;;;;;;;;;;;;;12.04;43.29;101781.09;4948802;28;6934;-76
2021/03/31 02:10:39;;;;;;;;;;;;;;;12.00;43.07;101774.88;4916024;28;8057;-79
2021/03/31 02:13:05;;;;;;;;;;;;;;;11.97;43.51;101773.88;4948318;28;7574;-77
2021/03/31 02:15:30;;;;;;;;;;;;;;;11.95;43.13;101779.03;4940301;28;7743;-78
2021/03/31 02:17:56;;;;;;;;;;;;;;;11.92;43.74;101772.84;4935273;28;7004;-80
2021/03/31 02:20:22;;;;;;;;;;;;;;;11.88;43.36;101772.75;4949132;28;7966;-77
2021/03/31 02:22:48;;;;;;;;;;;;;;;11.84;43.45;101770.88;4934292;28;7243;-78
2021/03/31 02:25:14;;;;;;;;;;;;;;;11.81;43.64;101773.41;4940178;28;7250;-78
2021/03/31 02:27:40;;;;;;;;;;;;;;;11.78;44.00;101770.66;4914136;29;7296;-76
2021/03/31 02:30:09;;;;;;;;;;;;;;;11.75;43.51;101775.72;4952294;28;6885;-76
2021/03/31 02:32:34;;;;;;;;;;;;;;;11.72;44.07;101767.81;4927427;28;6820;-78
2021/03/31 02:35:00;;;;;;;;;;;;;;;11.69;43.92;101764.22;4919309;28;6796;-78
2021/03/31 02:37:25;;;;;;;;;;;;;;;11.65;43.64;101763.25;4937913;28;7420;-77
2021/03/31 02:39:52;;;;;;;;;;;;;;;11.62;43.94;101763.16;4921646;28;8377;-78
2021/03/31 02:42:18;;;;;;;;;;;;;;;11.58;43.95;101758.63;4936552;28;6864;-76
2021/03/31 02:44:48;;;;;;;;;;;;;;;11.55;43.48;101755.94;4953275;28;6800;-75
2021/03/31 02:47:15;;;;;;;;;;;;;;;11.53;44.06;101750.69;4928498;28;11318;-77
2021/03/31 02:49:41;;;;;;;;;;;;;;;11.50;44.23;101754.91;4922842;28;7006;-77
2021/03/31 02:52:06;;;;;;;;;;;;;;;11.47;44.16;101749.59;4916801;28;7855;-77
2021/03/31 02:54:32;;;;;;;;;;;;;;;11.44;44.20;101752.97;4917508;28;7136;-77
2021/03/31 02:56:57;;;;;;;;;;;;;;;11.41;44.36;101755.47;4940965;28;7041;-77
2021/03/31 02:59:23;;;;;;;;;;;;;;;11.38;44.55;101759.66;4954100;28;6780;-76
2021/03/31 03:01:49;;;;;;;;;;;;;;;11.37;44.67;101760.47;4921785;28;7041;-79
2021/03/31 03:04:14;;;;;;;;;;;;;;;11.33;44.11;101751.69;4942911;28;7113;-77
2021/03/31 03:06:42;;;;;;;;;;;;;;;11.28;44.72;101754.13;4953362;28;6806;-76
2021/03/31 03:09:08;;;;;;;;;;;;;;;11.24;44.39;101752.25;4938621;28;6856;-78
2021/03/31 03:11:33;;;;;;;;;;;;;;;11.22;44.96;101743.50;4929136;28;6798;-77
2021/03/31 03:14:00;;;;;;;;;;;;;;;11.19;44.82;101745.97;4932185;28;7214;-77
2021/03/31 03:16:25;;;;;;;;;;;;;;;11.15;45.01;101746.69;4926115;28;8548;-78
2021/03/31 03:18:51;;;;;;;;;;;;;;;11.13;44.91;101745.75;4943079;28;7555;-79
2021/03/31 03:21:16;;;;;;;;;;;;;;;11.10;44.78;101745.66;4928047;28;7239;-78
2021/03/31 03:23:42;;;;;;;;;;;;;;;11.07;44.44;101731.66;4926150;28;11293;-77
2021/03/31 03:26:09;;;;;;;;;;;;;;;11.03;44.98;101735.88;4918802;28;6792;-76
2021/03/31 03:28:34;;;;;;;;;;;;;;;11.02;44.85;101733.22;4942092;28;6804;-76
2021/03/31 03:31:00;;;;;;;;;;;;;;;10.98;44.60;101727.00;4921280;28;7222;-80
2021/03/31 03:33:25;;;;;;;;;;;;;;;10.93;45.07;101725.94;4919883;28;7159;-77
2021/03/31 03:35:51;;;;;;;;;;;;;;;10.91;44.66;101728.50;4945388;28;7374;-79
2021/03/31 03:38:16;;;;;;;;;;;;;;;10.90;44.83;101741.44;4918037;28;7216;-77
2021/03/31 03:40:45;;;;;;;;;;;;;;;10.86;44.94;101722.25;4941190;28;7302;-77
2021/03/31 03:43:12;;;;;;;;;;;;;;;10.84;44.99;101730.81;4935828;28;7012;-77
2021/03/31 03:45:38;;;;;;;;;;;;;;;10.81;45.50;101730.66;4934020;28;6872;-77
2021/03/31 03:48:04;;;;;;;;;;;;;;;10.77;45.12;101721.00;4918665;28;7281;-77
2021/03/31 03:50:29;;;;;;;;;;;;;;;10.75;45.58;101726.13;4937273;28;7205;-79
2021/03/31 03:52:55;;;;;;;;;;;;;;;10.74;44.84;101726.06;4938844;28;6792;-78
2021/03/31 03:55:22;;;;;;;;;;;;;;;10.71;45.50;101731.16;4920082;28;7217;-76
2021/03/31 03:57:47;;;;;;;;;;;;;;;10.68;45.47;101731.03;4924287;28;8356;-79
2021/03/31 04:00:14;;;;;;;;;;;;;;;10.65;45.75;101731.81;4917839;28;11671;-77
2021/03/31 04:02:39;;;;;;;;;;;;;;;10.59;45.59;101722.06;4955751;28;7403;-78
2021/03/31 04:05:06;;;;;;;;;;;;;;;10.56;45.55;101724.53;4953064;28;7184;-79
2021/03/31 04:07:31;;;;;;;;;;;;;;;10.54;45.49;101726.19;4937097;28;7207;-77
2021/03/31 04:09:57;;;;;;;;;;;;;;;10.49;46.48;101719.06;4936789;28;8503;-76
2021/03/31 04:12:23;;;;;;;;;;;;;;;10.49;45.65;101725.13;4935367;28;7783;-79
2021/03/31 04:14:48;;;;;;;;;;;;;;;10.47;46.14;101718.13;4905898;28;7033;-81
2021/03/31 04:17:15;;;;;;;;;;;;;;;10.46;45.58;101718.94;4944199;28;6864;-78
2021/03/31 04:19:41;;;;;;;;;;;;;;;10.42;46.10;101715.34;4916362;28;7049;-78
2021/03/31 04:22:08;;;;;;;;;;;;;;;10.39;45.74;101720.41;4933607;28;8508;-78
2021/03/31 04:24:34;;;;;;;;;;;;;;;10.36;45.75;101721.16;4918822;28;6800;-78
2021/03/31 04:27:00;;;;;;;;;;;;;;;10.32;46.29;101721.00;4917500;28;8371;-76
2021/03/31 04:29:25;;;;;;;;;;;;;;;10.28;46.14;101716.50;4918303;28;7432;-77
2021/03/31 04:31:51;;;;;;;;;;;;;;;10.29;46.33;101716.56;4942383;28;6792;-81
2021/03/31 04:34:17;;;;;;;;;;;;;;;10.26;46.27;101715.56;4901952;28;9573;-79
2021/03/31 04:36:42;;;;;;;;;;;;;;;10.23;46.27;101716.34;4914786;28;8486;-79
2021/03/31 04:39:08;;;;;;;;;;;;;;;10.20;45.90;101716.16;4921914;28;6792;-76
2021/03/31 04:41:34;;;;;;;;;;;;;;;10.18;46.12;101710.00;4956337;28;6875;-77
2021/03/31 04:43:59;;;;;;;;;;;;;;;10.15;46.26;101714.19;4954056;28;6862;-79
2021/03/31 04:46:25;;;;;;;;;;;;;;;10.12;46.15;101716.69;4937934;28;6976;-80
2021/03/31 04:48:50;;;;;;;;;;;;;;;10.09;46.57;101711.38;4943076;28;7112;-76
2021/03/31 04:51:16;;;;;;;;;;;;;;;10.07;46.59;101711.31;4951507;28;7107;-77
2021/03/31 04:53:41;;;;;;;;;;;;;;;10.04;46.71;101713.78;4954442;28;8999;-77
2021/03/31 04:56:07;;;;;;;;;;;;;;;10.01;46.42;101709.38;4939588;28;8896;-79
2021/03/31 04:58:33;;;;;;;;;;;;;;;10.01;46.67;101709.38;4940731;28;7791;-76
2021/03/31 05:00:59;;;;;;;;;;;;;;;9.97;46.56;101707.44;4955234;28;7073;-76
2021/03/31 05:03:26;;;;;;;;;;;;;;;9.95;46.48;101708.19;4920911;28;6824;-76
2021/03/31 05:05:52;;;;;;;;;;;;;;;9.93;46.97;101709.84;4944427;28;7388;-81
2021/03/31 05:08:17;;;;;;;;;;;;;;;9.94;46.44;101703.84;4940209;28;6822;-82
2021/03/31 05:10:43;;;;;;;;;;;;;;;9.93;46.42;101699.47;4954844;28;7111;-77
2021/03/31 05:13:08;;;;;;;;;;;;;;;9.90;46.59;101700.25;4954212;28;7290;-78
2021/03/31 05:15:34;;;;;;;;;;;;;;;9.91;46.44;101701.13;4955579;28;6792;-80
2021/03/31 05:17:59;;;;;;;;;;;;;;;9.89;46.51;101702.78;4942853;28;8335;-78
2021/03/31 05:20:25;;;;;;;;;;;;;;;9.87;46.49;101700.13;4948487;28;6981;-77
2021/03/31 05:22:50;;;;;;;;;;;;;;;9.86;46.98;101692.28;4945795;28;7129;-84
2021/03/31 05:25:16;;;;;;;;;;;;;;;9.87;46.71;101697.53;4950978;28;7247;-82
2021/03/31 05:27:42;;;;;;;;;;;;;;;9.87;46.95;101699.22;4954778;28;6942;-77
2021/03/31 05:30:08;;;;;;;;;;;;;;;9.89;46.94;101701.06;4953919;28;7047;-76
2021/03/31 05:32:33;;;;;;;;;;;;;;;9.88;46.88;101696.69;4916838;28;8823;-77
2021/03/31 05:34:59;;;;;;;;;;;;;;;9.89;46.67;101695.88;4935963;28;7250;-77
2021/03/31 05:37:25;;;;;;;;;;;;;;;9.88;46.69;101691.50;4936031;28;7218;-78
2021/03/31 05:39:50;;;;;;;;;;;;;;;9.87;46.84;101694.94;4954808;28;7945;-77
2021/03/31 05:42:16;;;;;;;;;;;;;;;9.88;46.78;101694.09;4933881;28;7327;-77
2021/03/31 05:44:41;;;;;;;;;;;;;;;9.89;46.58;101692.41;4914469;28;8541;-78
2021/03/31 05:47:10;;;;;;;;;;;;;;;9.89;46.33;101693.28;4938987;28;7278;-78
2021/03/31 05:49:35;;;;;;;;;;;;;;;9.91;46.51;101699.41;4933905;28;6812;-78
2021/03/31 05:52:01;;;;;;;;;;;;;;;9.92;46.48;101693.41;4949399;28;7453;-78
2021/03/31 05:54:26;;;;;;;;;;;;;;;9.93;46.29;101695.16;4951614;28;6792;-77
2021/03/31 05:56:52;;;;;;;;;;;;;;;9.95;46.35;101696.13;4950502;28;6912;-78
2021/03/31 05:59:18;;;;;;;;;;;;;;;9.95;46.56;101688.31;4902200;28;6975;-78
2021/03/31 06:01:44;;;;;;;;;;;;;;;9.97;46.71;101693.56;4921860;28;8652;-78
2021/03/31 06:04:09;;;;;;;;;;;;;;;9.99;46.54;101692.81;4919614;28;6794;-74
2021/03/31 06:06:35;;;;;;;;;;;;;;;10.01;46.35;101693.78;4932336;28;7056;-76
2021/03/31 06:09:05;;;;;;;;;;;;;;;10.03;46.34;101692.13;4952423;28;7187;-76
2021/03/31 06:11:52;;;;;;;;;;;;;;;10.06;45.81;101701.75;4937841;28;7100;-76
2021/03/31 06:14:31;;;;;;;;;;;;;;;10.07;46.02;101699.22;4937931;28;11236;-74
2021/03/31 06:17:11;;;;;;;;;;;;;;;10.16;46.08;101700.41;4932227;28;11309;-76
2021/03/31 06:19:43;;;;;;;;;;;;;;;10.22;45.95;101695.50;4922656;28;8528;-74
2021/03/31 06:22:26;;;;;;;;;;;;;;;10.27;45.75;101714.75;4930773;28;7231;-76
2021/03/31 06:25:08;;;;;;;;;;;;;;;10.31;45.80;101701.94;4922119;28;11166;-75
2021/03/31 06:27:34;;;;;;;;;;;;;;;10.34;45.60;101703.75;4929389;28;12456;-76
2021/03/31 06:30:04;;;;;;;;;;;;;;;10.36;45.58;101707.28;4953487;28;6786;-76
2021/03/31 06:32:35;;;;;;;;;;;;;;;10.42;45.26;101701.47;4953672;28;7215;-73
2021/03/31 06:35:01;;;;;;;;;;;;;;;10.44;45.39;101702.44;4925253;28;7157;-73
2021/03/31 06:37:35;;;;;;;;;;;;;;;10.48;45.25;101705.19;4956185;28;7207;-73
2021/03/31 06:40:00;;;;;;;;;;;;;;;10.51;45.33;101702.72;4938057;28;7358;-75
2021/03/31 06:42:37;;;;;;;;;;;;;;;10.54;45.24;101696.75;4940968;28;7211;-74
2021/03/31 06:48:01;;;;;;;;;;;;;;;10.52;45.45;101703.59;4929741;28;11156;-76
2021/03/31 06:50:29;;;;;;;;;;;;;;;10.60;44.71;101703.03;4940015;28;7489;-75
2021/03/31 06:52:58;;;;;;;;;;;;;;;10.69;44.81;101699.94;4957228;28;6978;-76
2021/03/31 06:55:25;;;;;;;;;;;;;;;10.72;44.72;101689.66;4926137;28;7004;-75
2021/03/31 06:57:52;;;;;;;;;;;;;;;10.74;44.56;101690.59;4934426;28;6912;-78
2021/03/31 07:00:22;;;;;;;;;;;;;;;10.79;44.36;101686.44;4948598;28;7274;-74
2021/03/31 07:02:49;;;;;;;;;;;;;;;10.83;44.51;101687.47;4936299;28;7203;-73
2021/03/31 07:05:15;;;;;;;;;;;;;;;10.87;44.18;101689.34;4959968;28;7404;-73
2021/03/31 07:07:41;;;;;;;;;;;;;;;10.90;44.36;101682.53;4944031;28;7488;-73
2021/03/31 07:10:15;;;;;;;;;;;;;;;10.93;44.15;101679.16;4947144;28;6804;-73
2021/03/31 07:12:45;;;;;;;;;;;;;;;10.98;43.96;101683.69;4950219;28;11385;-74
2021/03/31 07:15:14;;;;;;;;;;;;;;;11.01;44.00;101674.22;4947874;28;7593;-74
2021/03/31 07:17:50;;;;;;;;;;;;;;;11.05;43.93;101673.53;4936048;28;6820;-73
2021/03/31 07:20:16;;;;;;;;;;;;;;;11.08;44.10;101674.53;4954827;28;7192;-73
2021/03/31 07:22:42;;;;;;;;;;;;;;;11.13;43.94;101670.38;4942331;28;7087;-73
2021/03/31 07:25:08;;;;;;;;;;;;;;;11.16;43.75;101675.66;4959349;28;6822;-73
2021/03/31 07:27:34;;;;;;;;;;;;;;;11.21;43.47;101668.94;4947808;28;11437;-73
2021/03/31 07:30:06;;;;;;;;;;;;;;;11.26;43.19;101669.09;4957443;28;7272;-73
2021/03/31 07:32:45;;;;;;;;;;;;;;;11.32;43.29;101665.81;4946190;28;7317;-72
2021/03/31 07:35:11;;;;;;;;;;;;;;;11.37;42.82;101664.25;4958281;28;10966;-73
2021/03/31 07:37:36;;;;;;;;;;;;;;;11.40;43.07;101657.44;4955214;28;7183;-73
2021/03/31 07:40:05;;;;;;;;;;;;;;;11.46;42.99;101659.38;4943251;28;7237;-74
2021/03/31 07:42:30;;;;;;;;;;;;;;;11.50;42.80;101650.84;4925753;28;9188;-74
2021/03/31 07:44:57;;;;;;;;;;;;;;;11.54;42.62;101651.00;4957379;28;6993;-74
2021/03/31 07:47:22;;;;;;;;;;;;;;;11.60;42.74;101655.50;4964355;28;6818;-74
2021/03/31 07:49:48;;;;;;;;;;;;;;;11.66;42.27;101662.66;4961405;28;7303;-73
2021/03/31 07:52:14;;;;;;;;;;;;;;;11.69;42.44;101650.63;4946544;28;8477;-74
2021/03/31 07:54:39;;;;;;;;;;;;;;;11.75;41.91;101653.41;4932382;28;7769;-74
2021/03/31 07:57:27;;;;;;;;;;;;;;;11.81;42.23;101655.38;4947393;28;7245;-74
2021/03/31 07:59:52;;;;;;;;;;;;;;;11.86;42.37;101648.63;4915557;28;6826;-74
2021/03/31 08:02:20;;;;;;;;;;;;;;;11.93;42.01;101647.06;4919983;28;7235;-73
2021/03/31 08:04:45;;;;;;;;;;;;;;;11.98;41.59;101650.72;4946017;28;6899;-73
2021/03/31 08:07:22;;;;;;;;;;;;;;;12.03;41.90;101644.84;4942660;28;7192;-74
2021/03/31 08:09:47;;;;;;;;;;;;;;;12.09;41.23;101645.00;4920904;28;7432;-74
2021/03/31 08:12:27;;;;;;;;;;;;;;;12.17;41.62;101650.44;4915820;28;7815;-74
2021/03/31 08:14:53;;;;;;;;;;;;;;;12.21;41.54;101647.09;4947189;28;7183;-74
2021/03/31 08:17:18;;;;;;;;;;;;;;;12.26;41.48;101645.53;4956010;28;7084;-74
2021/03/31 08:19:51;;;;;;;;;;;;;;;12.32;41.32;101635.31;4942851;28;7002;-74
2021/03/31 08:22:34;;;;;;;;;;;;;;;12.36;40.87;101637.16;4956524;28;6827;-73
2021/03/31 08:25:02;;;;;;;;;;;;;;;12.43;40.95;101636.53;4942398;28;11601;-74
2021/03/31 08:27:28;;;;;;;;;;;;;;;12.52;41.11;101632.41;4938454;28;7068;-74
2021/03/31 08:29:55;;;;;;;;;;;;;;;12.58;40.82;101622.16;4933532;28;7323;-75
2021/03/31 08:32:22;;;;;;;;;;;;;;;12.64;40.57;101630.16;4941352;28;6788;-74
2021/03/31 08:34:47;;;;;;;;;;;;;;;12.70;40.79;101626.00;4941775;28;7239;-74
2021/03/31 08:37:24;;;;;;;;;;;;;;;12.76;40.71;101622.69;4942542;28;7571;-74
2021/03/31 08:39:50;;;;;;;;;;;;;;;12.84;40.62;101622.91;4952346;28;7207;-77
2021/03/31 08:42:15;;;;;;;;;;;;;;;12.92;39.78;101619.66;4934918;28;8544;-74
2021/03/31 08:44:51;;;;;;;;;;;;;;;12.98;40.01;101622.44;4944167;28;7771;-74
2021/03/31 08:47:25;;;;;;;;;;;;;;;13.07;40.03;101612.28;4941284;28;9030;-75
2021/03/31 08:49:57;;;;;;;;;;;;;;;13.15;39.91;101619.41;4952532;28;8361;-75
2021/03/31 08:52:24;;;;;;;;;;;;;;;13.21;39.73;101604.81;4938163;28;6834;-74
2021/03/31 08:54:52;;;;;;;;;;;;;;;13.30;39.67;101617.22;4929730;28;7168;-75
2021/03/31 08:57:18;;;;;;;;;;;;;;;13.36;39.44;101607.81;4932911;28;8714;-75
2021/03/31 08:59:45;;;;;;;;;;;;;;;13.46;39.16;101608.06;4944266;28;7037;-75
2021/03/31 09:02:11;;;;;;;;;;;;;;;13.54;39.44;101610.03;4955788;28;6808;-74
2021/03/31 09:04:37;;;;;;;;;;;;;;;13.63;39.36;101609.38;4936723;28;6812;-76
2021/03/31 09:07:04;;;;;;;;;;;;;;;13.72;38.87;101609.59;4924071;28;7066;-75
2021/03/31 09:09:34;;;;;;;;;;;;;;;13.83;38.86;101607.25;4918804;28;7144;-75
2021/03/31 09:12:03;;;;;;;;;;;;;;;13.93;38.62;101606.59;4954538;28;9271;-75
2021/03/31 09:14:29;;;;;;;;;;;;;;;14.03;38.13;101598.16;4941899;28;7341;-75
2021/03/31 09:16:56;;;;;;;;;;;;;;;14.15;38.37;101600.13;4957086;28;7309;-76
2021/03/31 09:19:23;;;;;;;;;;;;;;;14.26;37.78;101602.16;4941738;28;8968;-74
2021/03/31 09:21:48;;;;;;;;;;;;;;;14.37;37.86;101598.88;4937261;28;7080;-75
2021/03/31 09:24:17;;;;;;;;;;;;;;;14.50;37.75;101593.09;4926544;28;9054;-74
2021/03/31 09:26:54;;;;;;;;;;;;;;;14.64;37.59;101590.78;4944598;28;13049;-74
2021/03/31 09:29:20;;;;;;;;;;;;;;;14.75;37.04;101589.22;4940475;28;11008;-74
2021/03/31 09:31:45;;;;;;;;;;;;;;;14.85;37.07;101589.44;4940251;28;8204;-75
2021/03/31 09:34:11;;;;;;;;;;;;;;;14.98;37.24;101581.81;4930433;28;6969;-74
2021/03/31 09:36:37;;;;;;;;;;;;;;;15.09;36.78;101580.28;4942343;28;7131;-75
2021/03/31 09:39:04;;;;;;;;;;;;;;;15.21;36.23;101586.59;4941052;28;7198;-75
2021/03/31 09:41:29;;;;;;;;;;;;;;;15.33;36.19;101582.44;4947245;28;7305;-74
2021/03/31 09:43:56;;;;;;;;;;;;;;;15.46;36.41;101580.06;4924091;28;7303;-74
2021/03/31 09:46:23;;;;;;;;;;;;;;;15.59;35.88;101588.13;4951209;28;6830;-74
2021/03/31 09:48:49;;;;;;;;;;;;;;;15.70;35.69;101578.72;4940739;28;6792;-75
2021/03/31 09:51:15;;;;;;;;;;;;;;;16.26;34.87;101574.31;4953592;28;11033;-75
2021/03/31 09:53:40;;;;;;;;;;;;;;;16.79;34.25;101573.19;4941564;28;7092;-75
2021/03/31 09:56:09;;;;;;;;;;;;;;;16.94;33.13;101566.38;4941966;28;7025;-75
2021/03/31 09:58:35;;;;;;;;;;;;;;;17.18;32.84;101557.84;4928919;28;7235;-75
2021/03/31 10:01:01;;;;;;;;;;;;;;;17.53;31.65;101550.28;4954328;28;11173;-75
2021/03/31 10:03:28;;;;;;;;;;;;;;;17.71;32.39;101552.19;4959457;28;6845;-76
2021/03/31 10:05:58;;;;;;;;;;;;;;;17.95;31.68;101548.84;4948492;28;7088;-76
2021/03/31 10:08:27;;;;;;;;;;;;;;;17.92;32.01;101551.44;4899574;28;11006;-74
2021/03/31 10:11:19;;;;;;;;;;;;;;;;;;;;;
2021/03/31 10:14:28;;;;;;;;;;;;;;;18.10;32.19;101548.03;4914585;28;7299;-76
2021/03/31 10:17:11;;;;;;;;;;;;;;;18.31;31.20;101542.00;4940337;28;12798;-76
2021/03/31 10:19:40;;;;;;;;;;;;;;;18.43;31.71;101535.06;4950358;28;11209;-75
2021/03/31 10:22:08;;;;;;;;;;;;;;;18.71;30.96;101537.78;4954739;28;7402;-76
2021/03/31 10:24:46;;;;;;;;;;;;;;;18.92;31.08;101537.81;4957411;28;7054;-76
2021/03/31 10:27:14;;;;;;;;;;;;;;;18.98;30.78;101526.41;4953438;28;7207;-74
2021/03/31 10:29:50;;;;;;;;;;;;;;;19.14;30.82;101539.59;4963672;28;7385;-76
2021/03/31 10:32:16;;;;;;;;;;;;;;;19.63;32.86;101522.94;4923348;28;7056;-74
2021/03/31 10:34:47;;;;;;;;;;;;;;;20.14;30.84;101521.91;4931049;28;7468;-75
2021/03/31 10:37:26;;;;;;;;;;;;;;;20.26;31.73;101523.63;4949301;28;7218;-75
2021/03/31 10:53:40;;;;;;;;;;;;;;;21.15;28.78;101508.13;4950736;28;6794;-74
2021/03/31 10:56:05;;;;;;;;;;;;;;;21.20;28.08;101501.91;4952665;28;7602;-73
2021/03/31 10:58:31;;;;;;;;;;;;;;;21.46;27.96;101498.22;4939963;28;6871;-74
2021/03/31 11:00:56;;;;;;;;;;;;;;;21.49;28.38;101493.78;4947495;28;6806;-73
2021/03/31 11:03:22;;;;;;;;;;;;;;;21.57;28.29;101491.03;4942052;28;7224;-74
2021/03/31 11:05:48;;;;;;;;;;;;;;;21.74;28.06;101482.94;4959815;28;7221;-75
2021/03/31 11:08:14;;;;;;;;;;;;;;;21.95;27.22;101490.63;4956334;28;7988;-76
2021/03/31 11:10:39;;;;;;;;;;;;;;;22.17;27.70;101488.63;4944206;28;7240;-75
2021/03/31 11:13:05;;;;;;;;;;;;;;;22.32;26.14;101485.78;4937406;28;6796;-73
2021/03/31 11:15:30;;;;;;;;;;;;;;;22.54;26.10;101478.41;4953056;28;7072;-74
2021/03/31 11:28:16;;;;;;;;;;;;;;;22.54;33.69;101462.53;4934951;28;6939;-75
2021/03/31 11:30:42;;;;;;;;;;;;;;;22.60;33.36;101457.13;4913535;28;7127;-74
2021/03/31 11:33:07;;;;;;;;;;;;;;;22.70;33.36;101463.16;4939681;28;7039;-75
2021/03/31 11:35:33;;;;;;;;;;;;;;;22.79;32.56;101455.06;4930473;28;6776;-75
2021/03/31 11:37:58;;;;;;;;;;;;;;;22.81;31.72;101450.63;4943803;28;7025;-75
2021/03/31 11:40:24;;;;;;;;;;;;;;;22.85;32.08;101448.84;4939967;28;7179;-75
2021/03/31 11:42:50;;;;;;;;;;;;;;;22.90;31.46;101447.00;4936451;28;7043;-75
2021/03/31 11:45:20;;;;;;;;;;;;;;;22.92;31.69;101443.41;4944432;28;7340;-75
2021/03/31 11:47:46;;;;;;;;;;;;;;;22.92;31.30;101431.94;4954128;28;12774;-75
2021/03/31 11:50:12;;;;;;;;;;;;;;;23.03;31.04;101430.88;4941730;28;7494;-75
2021/03/31 11:52:37;;;;;;;;;;;;;;;23.05;30.72;101422.91;4951080;28;6863;-74
2021/03/31 11:55:04;;;;;;;;;;;;;;;23.07;31.23;101418.44;4942665;28;7295;-76
2021/03/31 11:57:29;;;;;;;;;;;;;;;23.16;30.47;101412.97;4915616;28;7454;-75
2021/03/31 11:59:55;;;;;;;;;;;;;;;23.35;29.74;101411.72;4934848;28;7139;-74
2021/03/31 12:02:20;;;;;;;;;;;;;;;23.26;30.33;101396.03;4953362;28;8624;-75
2021/03/31 12:04:46;;;;;;;;;;;;;;;23.41;30.25;101402.78;4940052;28;8074;-75
2021/03/31 12:07:12;;;;;;;;;;;;;;;23.42;30.05;101401.88;4931313;28;7619;-75
2021/03/31 12:09:41;;;;;;;;;;;;;;;23.71;27.82;101397.81;4956193;28;6978;-75
2021/03/31 12:12:09;;;;;;;;;;;;;;;23.88;27.49;101395.69;4940688;28;6964;-75
2021/03/31 12:14:35;;;;;;;;;;;;;;;23.86;26.99;101387.75;4944886;28;6808;-75
2021/03/31 12:17:02;;;;;;;;;;;;;;;24.03;27.00;101391.81;4940376;28;7642;-75
2021/03/31 12:19:27;;;;;;;;;;;;;;;23.84;27.31;101394.88;4942776;28;6803;-75
2021/03/31 12:21:54;;;;;;;;;;;;;;;23.49;27.87;101384.09;4943591;28;7345;-75
2021/03/31 12:24:20;;;;;;;;;;;;;;;23.54;27.39;101383.09;4939266;28;7919;-75
2021/03/31 12:26:46;;;;;;;;;;;;;;;23.76;25.42;101378.25;4939347;28;7159;-74
2021/03/31 12:29:11;;;;;;;;;;;;;;;23.66;26.06;101380.22;4956158;28;7163;-75
2021/03/31 12:31:37;;;;;;;;;;;;;;;23.92;24.20;101374.34;4938240;28;7199;-74
2021/03/31 12:34:03;;;;;;;;;;;;;;;23.96;24.78;101367.19;4943868;28;7190;-74
2021/03/31 12:36:28;;;;;;;;;;;;;;;23.49;27.21;101366.41;4946057;28;7587;-74
2021/03/31 12:38:54;;;;;;;;;;;;;;;23.73;25.39;101372.13;4944566;28;7438;-74
2021/03/31 12:41:19;;;;;;;;;;;;;;;23.95;25.50;101354.84;4943451;28;7775;-74
2021/03/31 12:43:45;;;;;;;;;;;;;;;23.86;26.56;101361.25;4945745;28;7487;-74
2021/03/31 12:46:11;;;;;;;;;;;;;;;23.82;27.29;101354.22;4938530;28;7151;-74
2021/03/31 12:48:37;;;;;;;;;;;;;;;23.96;26.47;101348.63;4943318;28;6804;-74
2021/03/31 12:51:07;;;;;;;;;;;;;;;24.21;24.53;101343.63;4952425;28;7404;-74
2021/03/31 12:53:37;;;;;;;;;;;;;;;24.25;25.44;101342.66;4951575;28;6869;-74
2021/03/31 12:56:03;;;;;;;;;;;;;;;24.43;25.41;101338.72;4937233;28;7242;-74
2021/03/31 12:58:29;;;;;;;;;;;;;;;24.14;25.91;101332.28;4952240;28;7563;-74
2021/03/31 13:00:59;;;;;;;;;;;;;;;23.60;27.45;101321.13;4940490;28;8456;-74
2021/03/31 13:03:25;;;;;;;;;;;;;;;24.01;26.22;101316.69;4946134;28;7134;-74
2021/03/31 13:05:50;;;;;;;;;;;;;;;24.57;24.35;101318.00;4942945;28;7203;-76
2021/03/31 13:08:16;;;;;;;;;;;;;;;24.83;24.82;101309.34;4942952;28;6814;-73
2021/03/31 13:10:44;;;;;;;;;;;;;;;24.56;23.87;101305.63;4936861;28;7028;-74
2021/03/31 13:26:43;;;;;;;;;;;;;;;26.13;21.62;101285.13;4940593;28;6993;-73
2021/03/31 13:31:53;;;;;;;;;;;;;;;25.59;22.59;101271.75;4939526;28;6812;-74
2021/03/31 13:34:24;;;;;;;;;;;;;;;24.72;25.86;101274.22;4955058;28;8786;-73